createdAt,value
2023-09-27T00:00:37.917Z,76.68
2023-09-27T00:03:32.908Z,77.01
2023-09-27T00:06:19.551Z,76.76
2023-09-27T00:09:09.239Z,77.22
2023-09-27T00:11:56.276Z,76.86
2023-09-27T00:14:42.835Z,77.51
2023-09-27T00:17:30.498Z,77.21
2023-09-27T00:20:17.605Z,77.13
2023-09-27T00:23:04.743Z,77.26
2023-09-27T00:25:51.895Z,77.27
2023-09-27T00:28:38.586Z,77.41
2023-09-27T00:31:25.352Z,77.91
2023-09-27T00:34:12.077Z,77.68
2023-09-27T00:36:58.872Z,77.60
2023-09-27T00:39:45.565Z,77.41
2023-09-27T00:42:32.137Z,77.53
2023-09-27T00:45:19.494Z,77.55
2023-09-27T00:48:06.630Z,77.39
2023-09-27T00:50:54.536Z,77.83
2023-09-27T00:53:43.872Z,77.75
2023-09-27T00:56:30.953Z,77.66
2023-09-27T00:59:18.897Z,77.66
2023-09-27T01:02:07.060Z,77.97
2023-09-27T01:04:54.034Z,77.91
2023-09-27T01:07:41.717Z,77.61
2023-09-27T01:10:29.574Z,77.54
2023-09-27T01:13:16.577Z,78.18
2023-09-27T01:16:03.182Z,77.86
2023-09-27T01:18:49.980Z,78.04
2023-09-27T01:21:36.782Z,77.91
2023-09-27T01:24:23.680Z,77.89
2023-09-27T01:27:10.782Z,77.44
2023-09-27T01:29:58.406Z,77.82
2023-09-27T01:32:45.090Z,78.17
2023-09-27T01:35:32.716Z,77.99
2023-09-27T01:38:19.769Z,78.33
2023-09-27T01:41:06.530Z,78.41
2023-09-27T01:43:52.779Z,78.01
2023-09-27T01:46:39.929Z,78.10
2023-09-27T01:49:27.242Z,78.36
2023-09-27T01:52:14.012Z,78.25
2023-09-27T01:55:00.798Z,78.06
2023-09-27T01:57:48.194Z,78.20
2023-09-27T02:00:34.815Z,78.21
2023-09-27T02:03:21.394Z,78.08
2023-09-27T02:06:07.958Z,78.03
2023-09-27T02:08:54.766Z,78.00
2023-09-27T02:11:41.688Z,78.21
2023-09-27T02:14:28.843Z,77.88
2023-09-27T02:17:15.897Z,77.99
2023-09-27T02:20:08.839Z,78.11
2023-09-27T02:22:56.012Z,78.44
2023-09-27T02:25:43.040Z,77.98
2023-09-27T02:28:29.580Z,78.74
2023-09-27T02:31:16.486Z,78.27
2023-09-27T02:34:02.969Z,78.57
2023-09-27T02:36:50.078Z,78.62
2023-09-27T02:39:36.479Z,79.00
2023-09-27T02:42:23.021Z,78.92
2023-09-27T02:45:11.533Z,79.00
2023-09-27T02:48:00.022Z,78.57
2023-09-27T02:50:50.664Z,79.05
2023-09-27T02:53:37.334Z,79.57
2023-09-27T02:56:24.817Z,79.61
2023-09-27T02:59:12.559Z,79.65
2023-09-27T03:01:59.872Z,79.52
2023-09-27T03:04:48.685Z,80.12
2023-09-27T03:07:35.479Z,79.79
2023-09-27T03:10:22.162Z,80.08
2023-09-27T03:13:10.854Z,80.06
2023-09-27T03:15:58.457Z,80.15
2023-09-27T03:18:45.087Z,79.99
2023-09-27T03:21:32.186Z,80.15
2023-09-27T03:24:19.205Z,80.11
2023-09-27T03:27:06.159Z,80.06
2023-09-27T03:29:52.914Z,80.15
2023-09-27T03:32:39.614Z,80.27
2023-09-27T03:35:26.491Z,80.45
2023-09-27T03:38:13.060Z,80.49
2023-09-27T03:40:59.652Z,80.61
2023-09-27T03:43:47.608Z,80.40
2023-09-27T03:46:34.022Z,80.69
2023-09-27T03:49:21.442Z,80.47
2023-09-27T03:52:09.190Z,80.62
2023-09-27T03:54:56.397Z,80.41
2023-09-27T03:57:42.966Z,80.70
2023-09-27T04:00:29.800Z,80.54
2023-09-27T04:03:17.785Z,80.61
2023-09-27T04:06:05.000Z,80.64
2023-09-27T04:08:52.704Z,80.62
2023-09-27T04:11:39.654Z,80.62
2023-09-27T04:14:26.074Z,80.51
2023-09-27T04:17:12.503Z,80.90
2023-09-27T04:19:59.256Z,80.68
2023-09-27T04:22:48.461Z,80.59
2023-09-27T04:25:34.992Z,80.73
2023-09-27T04:28:21.613Z,80.79
2023-09-27T04:31:08.412Z,80.94
2023-09-27T04:33:54.620Z,80.94
2023-09-27T04:36:41.622Z,80.80
2023-09-27T04:39:32.315Z,80.72
2023-09-27T04:42:18.721Z,80.72
2023-09-27T04:45:06.302Z,80.84
2023-09-27T04:47:53.491Z,80.79
2023-09-27T04:50:41.189Z,80.98
2023-09-27T04:53:28.087Z,80.88
2023-09-27T04:56:14.671Z,80.92
2023-09-27T04:59:02.960Z,80.82
2023-09-27T05:01:49.416Z,80.64
2023-09-27T05:04:36.544Z,80.75
2023-09-27T05:07:24.007Z,80.61
2023-09-27T05:10:11.044Z,80.61
2023-09-27T05:12:58.002Z,80.40
2023-09-27T05:15:50.804Z,80.38
2023-09-27T05:18:37.467Z,80.33
2023-09-27T05:21:24.154Z,80.33
2023-09-27T05:24:10.950Z,80.25
2023-09-27T05:27:00.603Z,80.30
2023-09-27T05:29:48.166Z,80.16
2023-09-27T05:32:34.732Z,80.08
2023-09-27T05:35:21.818Z,80.13
2023-09-27T05:38:08.382Z,80.13
2023-09-27T05:40:55.095Z,80.17
2023-09-27T05:43:41.715Z,80.08
2023-09-27T05:46:30.090Z,79.97
2023-09-27T05:49:18.134Z,79.93
2023-09-27T05:52:04.868Z,79.86
2023-09-27T05:54:52.668Z,79.90
2023-09-27T05:57:39.922Z,79.94
2023-09-27T06:00:28.500Z,79.87
2023-09-27T06:03:15.517Z,79.78
2023-09-27T06:06:04.636Z,79.91
2023-09-27T06:08:52.930Z,79.88
2023-09-27T06:11:40.034Z,79.97
2023-09-27T06:14:26.440Z,79.99
2023-09-27T06:17:17.309Z,80.02
2023-09-27T06:20:13.393Z,79.83
2023-09-27T06:23:04.873Z,79.91
2023-09-27T06:25:52.455Z,80.02
2023-09-27T06:28:39.637Z,79.91
2023-09-27T06:31:26.311Z,79.73
2023-09-27T06:34:12.728Z,79.84
2023-09-27T06:36:59.656Z,79.66
2023-09-27T06:39:46.023Z,79.58
2023-09-27T06:42:32.433Z,79.56
2023-09-27T06:45:19.791Z,79.21
2023-09-27T06:48:06.581Z,79.38
2023-09-27T06:50:53.404Z,78.97
2023-09-27T06:53:39.883Z,78.70
2023-09-27T06:56:26.693Z,78.67
2023-09-27T06:59:13.315Z,78.24
2023-09-27T07:02:00.485Z,77.88
2023-09-27T07:04:47.649Z,77.87
2023-09-27T07:07:34.760Z,77.55
2023-09-27T07:10:22.797Z,77.07
2023-09-27T07:13:09.714Z,77.31
2023-09-27T07:15:56.111Z,77.21
2023-09-27T07:18:43.565Z,76.93
2023-09-27T07:21:31.683Z,76.79
2023-09-27T07:24:18.473Z,76.36
2023-09-27T07:27:05.091Z,76.05
2023-09-27T07:29:52.672Z,76.17
2023-09-27T07:32:40.896Z,76.18
2023-09-27T07:35:33.817Z,75.87
2023-09-27T07:38:20.344Z,75.84
2023-09-27T07:41:11.782Z,75.84
2023-09-27T07:43:58.641Z,75.54
2023-09-27T07:46:45.898Z,75.23
2023-09-27T07:49:32.609Z,75.08
2023-09-27T07:52:19.151Z,74.85
2023-09-27T07:55:06.681Z,74.66
2023-09-27T07:57:54.212Z,74.42
2023-09-27T08:00:41.863Z,74.22
2023-09-27T08:03:29.274Z,74.03
2023-09-27T08:06:17.825Z,73.94
2023-09-27T08:09:08.303Z,73.62
2023-09-27T08:11:56.169Z,73.36
2023-09-27T08:14:43.248Z,73.01
2023-09-27T08:17:31.189Z,72.73
2023-09-27T08:20:20.004Z,72.43
2023-09-27T08:23:07.194Z,72.24
2023-09-27T08:25:54.424Z,71.93
2023-09-27T08:28:41.166Z,71.61
2023-09-27T08:31:27.918Z,71.42
2023-09-27T08:34:14.710Z,71.20
2023-09-27T08:37:01.783Z,70.73
2023-09-27T08:39:48.858Z,70.30
2023-09-27T08:42:35.479Z,69.88
2023-09-27T08:45:24.099Z,69.62
2023-09-27T08:48:13.420Z,69.48
2023-09-27T08:51:05.968Z,69.13
2023-09-27T08:53:52.411Z,68.68
2023-09-27T08:56:39.708Z,68.53
2023-09-27T08:59:26.565Z,68.37
2023-09-27T09:02:15.156Z,67.65
2023-09-27T09:05:05.250Z,67.97
2023-09-27T09:07:52.098Z,67.53
2023-09-27T09:10:39.277Z,67.27
2023-09-27T09:13:25.793Z,66.86
2023-09-27T09:16:16.013Z,66.68
2023-09-27T09:19:29.253Z,66.20
2023-09-27T09:22:28.919Z,65.95
2023-09-27T09:25:15.305Z,65.12
2023-09-27T09:28:14.210Z,64.93
2023-09-27T09:31:01.022Z,64.53
2023-09-27T09:34:04.007Z,64.46
2023-09-27T09:36:52.960Z,64.22
2023-09-27T09:39:39.712Z,63.15
2023-09-27T09:42:33.951Z,62.89
2023-09-27T09:45:21.402Z,61.94
2023-09-27T09:48:08.167Z,62.46
2023-09-27T09:51:04.479Z,62.43
2023-09-27T09:53:52.948Z,61.61
2023-09-27T09:56:53.277Z,61.65
2023-09-27T09:59:59.017Z,61.50
2023-09-27T10:02:59.678Z,60.47
2023-09-27T10:05:46.925Z,60.65
2023-09-27T10:08:39.806Z,59.64
2023-09-27T10:11:27.495Z,59.48
2023-09-27T10:14:15.758Z,59.01
2023-09-27T10:17:02.337Z,58.28
2023-09-27T10:20:14.993Z,58.15
2023-09-27T10:23:11.872Z,57.84
2023-09-27T10:26:19.963Z,58.01
2023-09-27T10:32:43.723Z,55.72
2023-09-27T10:35:30.403Z,55.79
2023-09-27T10:38:17.182Z,54.50
2023-09-27T10:41:04.616Z,53.50
2023-09-27T10:43:51.553Z,53.77
2023-09-27T10:46:42.282Z,53.73
2023-09-27T10:49:40.023Z,53.41
2023-09-27T10:52:28.139Z,53.19
2023-09-27T10:55:15.661Z,53.41
2023-09-27T10:58:02.373Z,52.55
2023-09-27T11:01:05.003Z,51.62
2023-09-27T11:04:05.063Z,51.94
2023-09-27T11:06:53.221Z,51.52
2023-09-27T11:09:46.013Z,51.32
2023-09-27T11:12:32.701Z,51.38
2023-09-27T11:15:25.350Z,51.79
2023-09-27T11:18:12.908Z,51.39
2023-09-27T11:21:11.634Z,51.20
2023-09-27T11:24:00.337Z,51.18
2023-09-27T11:26:47.162Z,51.11
2023-09-27T11:29:33.926Z,50.84
2023-09-27T11:32:21.706Z,50.61
2023-09-27T11:35:09.185Z,50.05
2023-09-27T11:38:14.628Z,49.22
2023-09-27T11:41:07.756Z,47.67
2023-09-27T11:43:54.841Z,47.56
2023-09-27T11:46:41.838Z,46.84
2023-09-27T11:49:28.287Z,46.24
2023-09-27T11:52:14.860Z,45.03
2023-09-27T11:55:01.265Z,43.23
2023-09-27T11:57:48.038Z,42.37
2023-09-27T12:00:34.146Z,40.97
2023-09-27T12:03:20.809Z,39.79
2023-09-27T12:06:08.497Z,39.81
2023-09-27T12:08:55.878Z,39.50
2023-09-27T12:11:43.045Z,39.08
2023-09-27T12:14:29.684Z,38.75
2023-09-27T12:17:19.484Z,37.77
2023-09-27T12:20:09.229Z,37.33
2023-09-27T12:22:59.886Z,37.10
2023-09-27T12:25:46.460Z,36.90
2023-09-27T12:28:35.126Z,36.14
2023-09-27T12:31:22.874Z,35.51
2023-09-27T12:34:09.301Z,34.30
2023-09-27T12:36:56.226Z,33.61
2023-09-27T12:39:43.142Z,33.62
2023-09-27T12:42:29.887Z,32.50
2023-09-27T12:45:16.152Z,31.60
2023-09-27T12:48:02.767Z,31.75
2023-09-27T12:50:49.815Z,31.46
2023-09-27T12:53:36.862Z,31.02
2023-09-27T12:56:23.741Z,30.54
2023-09-27T12:59:10.537Z,30.34
2023-09-27T13:01:57.143Z,29.98
2023-09-27T13:04:44.680Z,29.51
2023-09-27T13:07:31.345Z,29.42
2023-09-27T13:10:18.385Z,28.81
2023-09-27T13:13:04.804Z,28.62
2023-09-27T13:15:51.287Z,27.55
2023-09-27T13:18:38.033Z,26.08
2023-09-27T13:21:26.005Z,25.27
2023-09-27T13:24:13.866Z,26.21
2023-09-27T13:27:00.648Z,26.34
2023-09-27T13:29:47.375Z,25.20
2023-09-27T13:32:35.020Z,25.29
2023-09-27T13:35:22.655Z,26.00
2023-09-27T13:38:11.868Z,26.14
2023-09-27T13:40:59.612Z,25.59
2023-09-27T13:43:46.444Z,25.50
2023-09-27T13:46:33.090Z,24.83
2023-09-27T13:49:19.766Z,24.45
2023-09-27T13:52:06.842Z,25.07
2023-09-27T13:54:53.868Z,26.48
2023-09-27T13:57:41.117Z,26.59
2023-09-27T14:00:27.736Z,25.65
2023-09-27T14:03:15.181Z,25.87
2023-09-27T14:06:01.950Z,25.14
2023-09-27T14:08:48.956Z,24.46
2023-09-27T14:11:36.923Z,23.73
2023-09-27T14:14:23.805Z,23.55
2023-09-27T14:17:10.562Z,24.12
2023-09-27T14:19:57.059Z,23.97
2023-09-27T14:22:45.273Z,23.76
2023-09-27T14:25:33.424Z,23.38
2023-09-27T14:28:20.095Z,22.74
2023-09-27T14:31:06.949Z,22.36
2023-09-27T14:33:54.006Z,22.54
2023-09-27T14:36:41.316Z,22.74
2023-09-27T14:39:28.874Z,22.16
2023-09-27T14:42:15.414Z,22.23
2023-09-27T14:45:02.893Z,22.38
2023-09-27T14:47:53.139Z,21.98
2023-09-27T14:50:39.671Z,21.41
2023-09-27T14:53:26.381Z,22.26
2023-09-27T14:56:14.205Z,22.04
2023-09-27T14:59:02.510Z,22.08
2023-09-27T15:01:49.538Z,21.38
2023-09-27T15:04:36.425Z,21.41
2023-09-27T15:07:23.466Z,21.66
2023-09-27T15:10:11.326Z,21.56
2023-09-27T15:12:57.733Z,21.72
2023-09-27T15:15:45.066Z,21.63
2023-09-27T15:18:32.380Z,22.39
2023-09-27T15:21:19.179Z,22.96
2023-09-27T15:24:05.691Z,23.09
2023-09-27T15:26:54.669Z,23.28
2023-09-27T15:29:41.263Z,23.71
2023-09-27T15:32:27.998Z,24.27
2023-09-27T15:35:15.484Z,24.62
2023-09-27T15:38:02.265Z,25.14
2023-09-27T15:40:49.330Z,26.32
2023-09-27T15:43:36.664Z,27.21
2023-09-27T15:46:24.505Z,28.51
2023-09-27T15:49:11.275Z,29.93
2023-09-27T15:51:58.727Z,30.86
2023-09-27T15:54:45.374Z,31.91
2023-09-27T15:57:32.611Z,32.92
2023-09-27T16:00:19.002Z,33.95
2023-09-27T16:03:05.726Z,34.76
2023-09-27T16:05:53.142Z,35.89
2023-09-27T16:08:39.846Z,36.93
2023-09-27T16:11:30.943Z,38.01
2023-09-27T16:14:17.267Z,38.96
2023-09-27T16:17:03.791Z,39.89
2023-09-27T16:25:11.455Z,42.03
2023-09-27T16:28:16.308Z,43.34
2023-09-27T16:31:21.795Z,44.05
2023-09-27T16:34:08.988Z,44.78
2023-09-27T16:36:58.462Z,45.51
2023-09-27T16:39:45.622Z,46.03
2023-09-27T16:42:32.781Z,46.77
2023-09-27T16:45:19.805Z,47.52
2023-09-27T16:48:07.060Z,48.38
2023-09-27T16:50:54.108Z,48.77
2023-09-27T16:53:41.053Z,49.18
2023-09-27T16:56:28.173Z,49.86
2023-09-27T16:59:16.860Z,50.67
2023-09-27T17:02:04.567Z,51.33
2023-09-27T17:04:51.607Z,51.78
2023-09-27T17:07:39.482Z,52.24
2023-09-27T17:10:26.306Z,52.73
2023-09-27T17:13:13.506Z,53.02
2023-09-27T17:16:00.678Z,53.59
2023-09-27T17:18:48.352Z,53.89
2023-09-27T17:21:35.694Z,54.31
2023-09-27T17:24:23.311Z,54.74
2023-09-27T17:27:10.434Z,55.25
2023-09-27T17:29:58.067Z,55.52
2023-09-27T17:32:45.704Z,55.98
2023-09-27T17:35:32.707Z,56.26
2023-09-27T17:38:20.217Z,56.67
2023-09-27T17:41:08.962Z,56.92
2023-09-27T17:43:56.251Z,57.35
2023-09-27T17:46:43.828Z,57.81
2023-09-27T17:49:30.886Z,58.10
2023-09-27T17:52:17.912Z,58.56
2023-09-27T17:55:06.070Z,58.78
2023-09-27T17:57:53.503Z,58.99
2023-09-27T18:00:41.777Z,59.23
2023-09-27T18:03:29.590Z,59.39
2023-09-27T18:06:16.666Z,59.81
2023-09-27T18:09:04.027Z,60.11
2023-09-27T18:11:50.631Z,60.38
2023-09-27T18:14:38.438Z,60.73
2023-09-27T18:17:26.018Z,60.89
2023-09-27T18:20:13.259Z,61.07
2023-09-27T18:23:00.415Z,61.34
2023-09-27T18:25:48.396Z,61.62
2023-09-27T18:28:34.823Z,61.92
2023-09-27T18:31:22.223Z,62.29
2023-09-27T18:34:09.205Z,62.53
2023-09-27T18:36:56.022Z,62.69
2023-09-27T18:39:42.379Z,62.89
2023-09-27T18:42:29.381Z,63.17
2023-09-27T18:45:16.093Z,63.56
2023-09-27T18:48:09.226Z,63.82
2023-09-27T18:50:57.151Z,63.99
2023-09-27T18:53:43.777Z,64.04
2023-09-27T18:56:30.245Z,64.29
2023-09-27T18:59:17.233Z,64.36
2023-09-27T19:02:04.023Z,64.67
2023-09-27T19:04:51.127Z,64.94
2023-09-27T19:07:37.622Z,65.23
2023-09-27T19:10:25.030Z,65.44
2023-09-27T19:13:11.303Z,65.46
2023-09-27T19:15:58.020Z,65.71
2023-09-27T19:18:44.942Z,65.91
2023-09-27T19:21:31.432Z,66.11
2023-09-27T19:24:18.164Z,66.23
2023-09-27T19:27:05.587Z,66.36
2023-09-27T19:29:52.413Z,66.39
2023-09-27T19:32:38.921Z,66.53
2023-09-27T19:35:25.749Z,66.64
2023-09-27T19:38:13.236Z,66.81
2023-09-27T19:40:59.993Z,66.87
2023-09-27T19:43:46.876Z,66.99
2023-09-27T19:46:33.816Z,67.11
2023-09-27T19:49:20.694Z,67.14
2023-09-27T19:52:07.603Z,67.64
2023-09-27T19:54:54.164Z,67.71
2023-09-27T19:57:40.907Z,67.93
2023-09-27T20:00:27.668Z,68.07
2023-09-27T20:03:14.426Z,67.95
2023-09-27T20:06:03.424Z,68.25
2023-09-27T20:08:51.396Z,68.57
2023-09-27T20:11:38.627Z,68.94
2023-09-27T20:14:25.415Z,68.86
2023-09-27T20:17:12.356Z,69.12
2023-09-27T20:19:59.225Z,69.15
2023-09-27T20:22:46.172Z,68.93
2023-09-27T20:25:33.249Z,69.18
2023-09-27T20:28:19.938Z,69.94
2023-09-27T20:31:06.247Z,69.64
2023-09-27T20:33:53.473Z,69.43
2023-09-27T20:36:40.506Z,69.91
2023-09-27T20:39:27.112Z,69.74
2023-09-27T20:42:15.637Z,69.82
2023-09-27T20:45:02.189Z,69.79
2023-09-27T20:47:50.423Z,70.04
2023-09-27T20:50:37.696Z,70.28
2023-09-27T20:53:25.606Z,70.39
2023-09-27T20:56:12.285Z,70.42
2023-09-27T20:58:58.952Z,70.91
2023-09-27T21:01:47.431Z,70.91
2023-09-27T21:04:34.107Z,71.06
2023-09-27T21:07:20.999Z,70.98
2023-09-27T21:10:08.470Z,71.16
2023-09-27T21:12:54.714Z,71.22
2023-09-27T21:15:41.813Z,71.28
2023-09-27T21:18:28.330Z,71.25
2023-09-27T21:21:15.528Z,71.42
2023-09-27T21:24:01.852Z,71.69
2023-09-27T21:26:48.445Z,71.94
2023-09-27T21:29:37.500Z,71.90
2023-09-27T21:32:23.942Z,72.18
2023-09-27T21:35:11.955Z,72.26
2023-09-27T21:37:59.163Z,72.67
2023-09-27T21:40:52.801Z,72.44
2023-09-27T21:43:40.358Z,72.90
2023-09-27T21:46:27.518Z,72.09
2023-09-27T21:49:14.406Z,72.15
2023-09-27T21:52:00.830Z,72.12
2023-09-27T21:54:47.165Z,72.42
2023-09-27T21:57:33.839Z,72.65
2023-09-27T22:00:29.167Z,72.86
2023-09-27T22:03:18.532Z,72.89
2023-09-27T22:06:06.855Z,73.07
2023-09-27T22:08:54.628Z,73.18
2023-09-27T22:11:42.019Z,73.52
2023-09-27T22:14:28.553Z,73.39
2023-09-27T22:17:16.964Z,73.14
2023-09-27T22:20:20.213Z,73.44
2023-09-27T22:23:06.829Z,74.06
2023-09-27T22:25:55.051Z,73.28
2023-09-27T22:28:41.906Z,73.87
2023-09-27T22:31:31.539Z,73.56
2023-09-27T22:34:24.799Z,73.52
2023-09-27T22:37:11.666Z,73.79
2023-09-27T22:40:14.784Z,73.60
2023-09-27T22:43:06.524Z,73.89
2023-09-27T22:45:53.762Z,74.27
2023-09-27T22:48:40.449Z,73.82
2023-09-27T22:51:27.154Z,74.13
2023-09-27T22:54:15.889Z,74.57
2023-09-27T22:57:02.448Z,74.19
2023-09-27T22:59:49.668Z,74.04
2023-09-27T23:02:36.284Z,74.28
2023-09-27T23:05:41.272Z,74.37
2023-09-27T23:08:27.768Z,74.47
2023-09-27T23:11:14.386Z,74.48
2023-09-27T23:14:06.539Z,74.48
2023-09-27T23:17:13.374Z,74.50
2023-09-27T23:20:01.917Z,74.98
2023-09-27T23:22:58.564Z,74.93
2023-09-27T23:25:46.176Z,75.34
2023-09-27T23:28:41.637Z,74.99
2023-09-27T23:31:31.026Z,75.08
2023-09-27T23:34:17.671Z,75.29
2023-09-27T23:37:15.330Z,75.21
2023-09-27T23:40:02.464Z,75.41
2023-09-27T23:42:49.428Z,75.41
2023-09-27T23:45:36.061Z,74.74
2023-09-27T23:48:24.810Z,74.82
2023-09-27T23:51:11.626Z,75.02
2023-09-27T23:54:00.503Z,75.28
2023-09-27T23:56:47.270Z,75.40
2023-09-27T23:59:34.718Z,75.37
